Terminal Aerodrome Forecast
Issued by NWS Flagstaff, AZ

Home | Current Version | Previous Version | Text Only | Print | Product List | Glossary On
Versions: 1 2 3 4 5 6 7 8 9 10 11 12 13 14 15 16 17 18 19 20 21
000
FTUS45 KFGZ 050537
TAFINW
TAF
KINW 050537Z 0506/0606 VRB06KT P6SM SCT080 BKN120
     FM052000 22014G21KT P6SM SCT080
      TEMPO 0520/0524 VRB15G25KT 5SM TSRA BKN070CB
     FM060230 24008KT P6SM SCT100=

USA.gov is the U.S. government's official web portal to all federal, state and local government web resources and services.